createdAt,value
2018-05-06T00:01:30.305Z,3.00
2018-05-06T00:04:02.791Z,2.93
2018-05-06T00:06:35.318Z,2.80
2018-05-06T00:09:07.814Z,3.13
2018-05-06T00:11:40.346Z,3.33
2018-05-06T00:14:12.840Z,2.63
2018-05-06T00:16:47.001Z,3.40
2018-05-06T00:19:19.496Z,3.20
2018-05-06T00:21:52.092Z,3.07
2018-05-06T00:24:24.632Z,3.20
2018-05-06T00:26:57.148Z,3.00
2018-05-06T00:29:29.648Z,3.30
2018-05-06T00:32:02.165Z,3.00
2018-05-06T00:34:34.856Z,2.93
2018-05-06T00:37:07.424Z,3.13
2018-05-06T00:39:39.928Z,3.03
2018-05-06T00:42:12.443Z,2.70
2018-05-06T00:44:44.936Z,3.07
2018-05-06T00:47:18.169Z,2.57
2018-05-06T00:49:50.687Z,3.00
2018-05-06T00:52:23.212Z,2.83
2018-05-06T00:54:55.754Z,3.30
2018-05-06T00:57:28.243Z,2.67
2018-05-06T01:00:00.753Z,3.30
2018-05-06T01:02:33.247Z,2.73
2018-05-06T01:05:05.763Z,2.63
2018-05-06T01:07:38.256Z,2.60
2018-05-06T01:10:10.782Z,2.73
2018-05-06T01:12:43.281Z,2.70
2018-05-06T01:15:16.041Z,2.97
2018-05-06T01:17:48.540Z,2.67
2018-05-06T01:20:21.055Z,2.67
2018-05-06T01:22:53.552Z,3.07
2018-05-06T01:25:26.072Z,2.97
2018-05-06T01:27:58.565Z,3.30
2018-05-06T01:30:31.078Z,2.90
2018-05-06T01:33:03.570Z,3.43
2018-05-06T01:35:36.088Z,3.00
2018-05-06T01:38:08.589Z,3.23
2018-05-06T01:40:41.110Z,2.63
2018-05-06T01:43:13.607Z,3.03
2018-05-06T01:45:46.682Z,2.60
2018-05-06T01:48:19.180Z,2.90
2018-05-06T01:50:51.692Z,2.90
2018-05-06T01:53:24.191Z,2.63
2018-05-06T01:55:56.716Z,2.83
2018-05-06T01:58:29.216Z,2.67
2018-05-06T02:01:01.728Z,3.03
2018-05-06T02:03:34.227Z,3.00
2018-05-06T02:06:06.749Z,2.80
2018-05-06T02:08:39.243Z,2.90
2018-05-06T02:11:11.808Z,3.00
2018-05-06T02:13:44.295Z,3.03
2018-05-06T02:16:17.738Z,2.80
2018-05-06T02:18:50.235Z,2.90
2018-05-06T02:21:22.751Z,2.63
2018-05-06T02:23:55.249Z,3.03
2018-05-06T02:26:27.766Z,2.67
2018-05-06T02:29:00.267Z,2.83
2018-05-06T02:31:32.800Z,3.13
2018-05-06T02:34:05.293Z,2.87
2018-05-06T02:36:37.845Z,2.90
2018-05-06T02:39:10.327Z,3.17
2018-05-06T02:41:42.857Z,2.87
2018-05-06T02:44:17.002Z,2.70
2018-05-06T02:46:49.524Z,2.70
2018-05-06T02:49:22.072Z,2.93
2018-05-06T02:51:54.579Z,3.00
2018-05-06T02:54:27.080Z,3.27
2018-05-06T02:56:59.595Z,2.73
2018-05-06T02:59:32.079Z,3.20
2018-05-06T03:02:04.596Z,2.93
2018-05-06T03:04:37.088Z,2.80
2018-05-06T03:07:09.603Z,2.97
2018-05-06T03:09:42.087Z,2.80
2018-05-06T03:12:14.607Z,2.60
2018-05-06T03:14:47.924Z,2.90
2018-05-06T03:17:20.440Z,2.73
2018-05-06T03:19:52.931Z,3.27
2018-05-06T03:22:25.451Z,2.57
2018-05-06T03:24:57.940Z,3.23
2018-05-06T03:27:30.456Z,3.10
2018-05-06T03:30:02.950Z,2.87
2018-05-06T03:32:35.476Z,2.87
2018-05-06T03:35:07.981Z,2.83
2018-05-06T03:37:40.490Z,3.10
2018-05-06T03:40:12.995Z,3.37
2018-05-06T03:42:45.628Z,3.00
2018-05-06T03:45:18.120Z,3.40
2018-05-06T03:47:50.642Z,3.30
2018-05-06T03:50:23.204Z,3.00
2018-05-06T03:52:55.757Z,3.30
2018-05-06T03:55:28.257Z,3.20
2018-05-06T03:58:12.523Z,3.13
2018-05-06T04:00:45.730Z,3.30
2018-05-06T04:03:18.246Z,3.40
2018-05-06T04:05:50.828Z,3.43
2018-05-06T04:08:23.267Z,3.00
2018-05-06T04:10:55.793Z,3.13
2018-05-06T04:13:28.287Z,3.20
2018-05-06T04:16:00.798Z,2.90
2018-05-06T04:18:33.288Z,3.30
2018-05-06T04:21:05.804Z,3.07
2018-05-06T04:23:38.299Z,3.27
2018-05-06T04:26:10.805Z,2.93
2018-05-06T04:28:43.295Z,3.40
2018-05-06T04:31:16.348Z,2.80
2018-05-06T04:33:48.841Z,3.40
2018-05-06T04:36:21.352Z,3.00
2018-05-06T04:38:53.857Z,2.90
2018-05-06T04:41:26.380Z,2.70
2018-05-06T04:43:58.885Z,3.27
2018-05-06T04:46:31.403Z,2.90
2018-05-06T04:49:03.897Z,3.10
2018-05-06T04:51:36.417Z,3.17
2018-05-06T04:54:08.907Z,3.10
2018-05-06T04:56:41.416Z,3.20
2018-05-06T04:59:13.917Z,3.20
2018-05-06T05:01:46.694Z,2.63
2018-05-06T05:04:19.203Z,3.30
2018-05-06T05:06:51.725Z,2.73
2018-05-06T05:09:24.229Z,3.20
2018-05-06T05:11:56.746Z,3.17
2018-05-06T05:14:29.239Z,3.57
2018-05-06T05:17:01.763Z,3.27
2018-05-06T05:19:34.263Z,3.47
2018-05-06T05:22:06.793Z,3.50
2018-05-06T05:24:39.311Z,3.47
2018-05-06T05:27:11.826Z,3.47
2018-05-06T05:29:44.323Z,3.40
2018-05-06T05:32:16.843Z,3.70
2018-05-06T05:34:49.346Z,3.97
2018-05-06T05:37:21.868Z,3.30
2018-05-06T05:39:54.367Z,3.57
2018-05-06T05:42:26.881Z,3.83
2018-05-06T05:44:59.372Z,3.47
2018-05-06T05:47:31.889Z,3.67
2018-05-06T05:50:04.388Z,3.67
2018-05-06T05:52:36.900Z,3.70
2018-05-06T05:55:09.397Z,3.70
2018-05-06T05:57:41.917Z,3.60
2018-05-06T06:00:14.431Z,3.50
2018-05-06T06:02:47.513Z,3.53
2018-05-06T06:05:20.007Z,3.77
2018-05-06T06:07:52.574Z,4.07
2018-05-06T06:10:25.072Z,2.97
2018-05-06T06:12:57.589Z,3.55
2018-05-06T06:15:30.108Z,3.28
2018-05-06T06:18:02.638Z,3.25
2018-05-06T06:20:35.140Z,3.33
2018-05-06T06:23:07.654Z,3.33
2018-05-06T06:25:40.165Z,3.45
2018-05-06T06:28:12.688Z,3.17
2018-05-06T06:30:45.184Z,3.62
2018-05-06T06:33:18.719Z,3.05
2018-05-06T06:35:51.216Z,3.50
2018-05-06T06:38:23.736Z,3.67
2018-05-06T06:40:56.229Z,2.85
2018-05-06T06:43:28.751Z,3.28
2018-05-06T06:46:01.275Z,3.35
2018-05-06T06:48:33.800Z,2.90
2018-05-06T06:51:06.315Z,3.40
2018-05-06T06:53:38.831Z,3.20
2018-05-06T06:56:11.325Z,3.08
2018-05-06T06:58:43.849Z,3.15
2018-05-06T07:01:16.812Z,3.28
2018-05-06T07:03:49.335Z,3.12
2018-05-06T07:06:21.838Z,3.05
2018-05-06T07:08:54.372Z,3.05
2018-05-06T07:11:26.893Z,3.35
2018-05-06T07:13:59.410Z,3.15
2018-05-06T07:16:31.915Z,3.60
2018-05-06T07:19:04.435Z,2.95
2018-05-06T07:21:36.948Z,2.83
2018-05-06T07:24:09.474Z,3.40
2018-05-06T07:26:41.979Z,3.17
2018-05-06T07:29:14.501Z,3.15
2018-05-06T07:31:47.599Z,2.95
2018-05-06T07:34:20.114Z,2.85
2018-05-06T07:36:52.648Z,2.70
2018-05-06T07:39:25.155Z,2.90
2018-05-06T07:41:57.680Z,2.83
2018-05-06T07:44:30.183Z,3.00
2018-05-06T07:47:02.710Z,3.37
2018-05-06T07:49:35.218Z,3.30
2018-05-06T07:52:07.739Z,3.62
2018-05-06T07:54:40.238Z,3.30
2018-05-06T07:57:12.767Z,3.60
2018-05-06T07:59:46.974Z,3.25
2018-05-06T08:02:19.491Z,3.30
2018-05-06T08:04:51.997Z,3.20
2018-05-06T08:07:24.511Z,2.97
2018-05-06T08:09:57.008Z,3.55
2018-05-06T08:12:29.532Z,3.10
2018-05-06T08:15:02.031Z,3.15
2018-05-06T08:17:34.551Z,2.85
2018-05-06T08:20:07.057Z,3.17
2018-05-06T08:22:39.564Z,3.33
2018-05-06T08:25:12.067Z,3.47
2018-05-06T08:27:44.588Z,3.30
2018-05-06T08:30:17.795Z,3.30
2018-05-06T08:32:50.316Z,3.20
2018-05-06T08:35:22.814Z,3.62
2018-05-06T08:37:55.337Z,3.35
2018-05-06T08:40:27.843Z,3.25
2018-05-06T08:43:00.367Z,3.28
2018-05-06T08:45:32.870Z,2.83
2018-05-06T08:48:05.389Z,2.90
2018-05-06T08:50:37.890Z,2.85
2018-05-06T08:53:10.414Z,2.90
2018-05-06T08:55:42.915Z,2.72
2018-05-06T08:58:15.716Z,3.10
2018-05-06T09:00:48.216Z,2.97
2018-05-06T09:03:20.741Z,3.17
2018-05-06T09:05:53.236Z,2.85
2018-05-06T09:08:25.767Z,2.83
2018-05-06T09:10:58.263Z,2.50
2018-05-06T09:13:30.772Z,3.03
2018-05-06T09:16:03.317Z,2.75
2018-05-06T09:18:35.834Z,2.85
2018-05-06T09:21:08.341Z,2.40
2018-05-06T09:23:40.855Z,2.97
2018-05-06T09:26:13.358Z,2.85
2018-05-06T09:28:46.366Z,2.60
2018-05-06T09:31:18.864Z,2.90
2018-05-06T09:33:51.383Z,2.58
2018-05-06T09:36:23.876Z,1.98
2018-05-06T09:38:56.393Z,2.00
2018-05-06T09:41:28.891Z,1.90
2018-05-06T09:44:01.476Z,1.70
2018-05-06T09:46:34.049Z,1.77
2018-05-06T09:49:06.721Z,2.33
2018-05-06T09:51:39.383Z,1.95
2018-05-06T09:54:11.905Z,1.95
2018-05-06T09:56:44.421Z,1.95
2018-05-06T09:59:17.677Z,1.60
2018-05-06T10:01:50.171Z,1.90
2018-05-06T10:04:22.693Z,1.90
2018-05-06T10:06:55.198Z,1.95
2018-05-06T10:09:27.723Z,1.90
2018-05-06T10:12:00.227Z,1.98
2018-05-06T10:14:32.790Z,2.30
2018-05-06T10:17:05.283Z,1.80
2018-05-06T10:19:37.805Z,2.05
2018-05-06T10:22:10.385Z,1.60
2018-05-06T10:24:42.860Z,1.77
2018-05-06T10:27:15.611Z,1.70
2018-05-06T10:29:48.137Z,1.73
2018-05-06T10:32:20.654Z,1.80
2018-05-06T10:34:53.170Z,1.60
2018-05-06T10:37:25.661Z,1.50
2018-05-06T10:39:58.184Z,1.50
2018-05-06T10:42:30.705Z,1.48
2018-05-06T10:45:03.207Z,1.30
2018-05-06T10:47:35.703Z,1.50
2018-05-06T10:50:08.226Z,1.60
2018-05-06T10:52:40.738Z,1.35
2018-05-06T10:55:13.253Z,1.60
2018-05-06T10:57:46.002Z,1.58
2018-05-06T11:00:18.519Z,1.70
2018-05-06T11:02:51.341Z,1.50
2018-05-06T11:05:24.100Z,1.75
2018-05-06T11:07:56.731Z,1.50
2018-05-06T11:10:29.436Z,1.40
2018-05-06T11:13:01.909Z,1.33
2018-05-06T11:15:34.411Z,1.23
2018-05-06T11:18:06.928Z,1.15
2018-05-06T11:20:39.426Z,1.30
2018-05-06T11:23:11.981Z,1.25
2018-05-06T11:25:44.570Z,1.85
2018-05-06T11:28:17.763Z,1.60
2018-05-06T11:30:50.267Z,1.35
2018-05-06T11:33:22.864Z,1.27
2018-05-06T11:35:55.300Z,1.10
2018-05-06T11:38:27.836Z,1.40
2018-05-06T11:41:00.396Z,1.27
2018-05-06T11:43:32.860Z,1.60
2018-05-06T11:46:05.474Z,1.50
2018-05-06T11:48:37.988Z,1.40
2018-05-06T11:51:10.488Z,1.35
2018-05-06T11:53:43.000Z,1.60
2018-05-06T11:56:15.774Z,1.58
2018-05-06T11:58:48.284Z,1.80
2018-05-06T12:01:20.778Z,1.90
2018-05-06T12:03:53.297Z,1.70
2018-05-06T12:06:25.823Z,1.70
2018-05-06T12:08:58.349Z,1.60
2018-05-06T12:11:30.847Z,2.15
2018-05-06T12:14:03.368Z,1.80
2018-05-06T12:16:36.277Z,1.70
2018-05-06T12:19:09.286Z,1.77
2018-05-06T12:21:42.032Z,1.52
2018-05-06T12:24:14.587Z,1.65
2018-05-06T12:26:47.843Z,1.52
2018-05-06T12:29:20.365Z,1.70
2018-05-06T12:31:52.877Z,1.80
2018-05-06T12:34:25.398Z,1.70
2018-05-06T12:36:57.896Z,1.48
2018-05-06T12:39:30.439Z,1.50
2018-05-06T12:42:03.407Z,1.70
2018-05-06T12:44:35.921Z,2.05
2018-05-06T12:47:08.415Z,1.65
2018-05-06T12:49:40.939Z,1.95
2018-05-06T12:52:13.446Z,1.40
2018-05-06T12:54:46.476Z,1.40
2018-05-06T12:57:18.971Z,1.67
2018-05-06T12:59:51.482Z,1.70
2018-05-06T13:02:24.064Z,1.62
2018-05-06T13:04:56.519Z,2.00
2018-05-06T13:07:29.026Z,1.80
2018-05-06T13:10:01.538Z,1.98
2018-05-06T13:12:34.040Z,1.48
2018-05-06T13:15:06.559Z,1.75
2018-05-06T13:17:39.052Z,1.42
2018-05-06T13:20:11.574Z,1.87
2018-05-06T13:22:44.067Z,1.90
2018-05-06T13:25:16.937Z,1.67
2018-05-06T13:27:49.439Z,1.50
2018-05-06T13:30:21.966Z,1.48
2018-05-06T13:32:54.464Z,1.65
2018-05-06T13:35:26.986Z,1.60
2018-05-06T13:37:59.502Z,1.70
2018-05-06T13:40:32.107Z,1.58
2018-05-06T13:43:04.603Z,1.70
2018-05-06T13:45:37.119Z,1.85
2018-05-06T13:48:09.619Z,1.52
2018-05-06T13:50:42.131Z,1.77
2018-05-06T13:53:14.634Z,1.60
2018-05-06T13:55:47.767Z,1.48
2018-05-06T13:58:20.258Z,1.73
2018-05-06T14:00:52.805Z,1.62
2018-05-06T14:03:25.305Z,1.77
2018-05-06T14:05:57.818Z,1.85
2018-05-06T14:08:30.321Z,1.73
2018-05-06T14:11:02.845Z,1.67
2018-05-06T14:13:35.341Z,1.92
2018-05-06T14:16:07.862Z,1.73
2018-05-06T14:18:40.444Z,1.67
2018-05-06T14:21:12.918Z,1.92
2018-05-06T14:23:45.670Z,1.50
2018-05-06T14:26:18.190Z,1.40
2018-05-06T14:28:50.694Z,1.52
2018-05-06T14:31:23.211Z,1.50
2018-05-06T14:33:55.708Z,1.48
2018-05-06T14:36:28.236Z,1.58
2018-05-06T14:39:00.738Z,1.77
2018-05-06T14:41:33.251Z,1.67
2018-05-06T14:44:05.744Z,1.70
2018-05-06T14:46:50.196Z,1.55
2018-05-06T14:49:22.747Z,1.60
2018-05-06T14:51:55.248Z,1.70
2018-05-06T14:54:27.767Z,2.00
2018-05-06T14:57:00.281Z,1.75
2018-05-06T14:59:32.804Z,1.37
2018-05-06T15:02:05.305Z,1.75
2018-05-06T15:04:37.836Z,1.80
2018-05-06T15:07:10.331Z,2.10
2018-05-06T15:09:42.847Z,1.60
2018-05-06T15:12:15.692Z,1.70
2018-05-06T15:14:48.537Z,2.08
2018-05-06T15:17:21.033Z,1.80
2018-05-06T15:19:53.550Z,1.87
2018-05-06T15:22:26.046Z,1.60
2018-05-06T15:24:58.567Z,1.75
2018-05-06T15:27:31.064Z,1.80
2018-05-06T15:30:03.581Z,1.80
2018-05-06T15:32:36.097Z,1.87
2018-05-06T15:35:08.619Z,1.83
2018-05-06T15:37:41.120Z,1.60
2018-05-06T15:40:13.631Z,1.90
2018-05-06T15:42:46.502Z,1.85
2018-05-06T15:45:19.015Z,1.70
2018-05-06T15:47:51.512Z,1.73
2018-05-06T15:50:24.125Z,1.60
2018-05-06T15:52:56.550Z,1.62
2018-05-06T15:55:29.069Z,1.70
2018-05-06T15:58:01.568Z,2.03
2018-05-06T16:00:34.087Z,1.73
2018-05-06T16:03:18.280Z,1.50
2018-05-06T16:05:50.800Z,1.85
2018-05-06T16:08:23.297Z,1.87
2018-05-06T16:10:55.814Z,1.67
2018-05-06T16:13:28.316Z,1.85
2018-05-06T16:16:00.853Z,1.90
2018-05-06T16:18:34.182Z,2.50
2018-05-06T16:21:06.696Z,1.50
2018-05-06T16:23:39.191Z,1.50
2018-05-06T16:26:11.706Z,2.20
2018-05-06T16:28:44.203Z,1.83
2018-05-06T16:31:16.892Z,1.80
2018-05-06T16:33:54.903Z,1.80
2018-05-06T16:36:27.417Z,1.77
2018-05-06T16:38:59.916Z,1.60
2018-05-06T16:41:32.439Z,1.80
2018-05-06T16:44:04.938Z,1.73
2018-05-06T16:46:37.477Z,1.83
2018-05-06T16:49:09.995Z,2.00
2018-05-06T16:51:42.670Z,1.77
2018-05-06T16:54:15.193Z,1.80
2018-05-06T16:56:47.831Z,1.85
2018-05-06T16:59:20.329Z,2.25
2018-05-06T17:01:52.871Z,1.62
2018-05-06T17:04:25.362Z,1.77
2018-05-06T17:06:57.916Z,1.75
2018-05-06T17:09:30.401Z,1.92
2018-05-06T17:12:03.387Z,2.15
2018-05-06T17:14:35.887Z,2.03
2018-05-06T17:17:08.399Z,1.77
2018-05-06T17:19:40.903Z,2.15
2018-05-06T17:22:13.423Z,2.12
2018-05-06T17:24:46.536Z,1.92
2018-05-06T17:27:19.058Z,1.90
2018-05-06T17:29:51.551Z,2.20
2018-05-06T17:32:24.065Z,1.80
2018-05-06T17:34:56.559Z,2.17
2018-05-06T17:37:29.082Z,1.98
2018-05-06T17:40:01.612Z,2.03
2018-05-06T17:42:34.131Z,1.92
2018-05-06T17:45:06.632Z,1.87
2018-05-06T17:47:39.146Z,1.90
2018-05-06T17:50:11.693Z,1.75
2018-05-06T17:52:44.175Z,1.75
2018-05-06T17:55:16.666Z,2.30
2018-05-06T17:57:49.180Z,1.60
2018-05-06T18:00:21.680Z,1.60
2018-05-06T18:02:54.200Z,2.10
2018-05-06T18:05:26.717Z,1.73
2018-05-06T18:07:59.217Z,1.90
2018-05-06T18:10:31.727Z,1.85
2018-05-06T18:13:04.231Z,2.12
2018-05-06T18:15:36.747Z,1.70
2018-05-06T18:18:09.247Z,1.85
2018-05-06T18:20:41.769Z,2.10
2018-05-06T18:23:14.266Z,2.00
2018-05-06T18:25:46.785Z,1.80
2018-05-06T18:28:19.281Z,1.75
2018-05-06T18:30:51.803Z,2.00
2018-05-06T18:33:24.299Z,1.73
2018-05-06T18:35:56.814Z,1.77
2018-05-06T18:38:29.320Z,2.08
2018-05-06T18:41:01.843Z,1.90
2018-05-06T18:43:34.333Z,1.83
2018-05-06T18:46:06.845Z,1.80
2018-05-06T18:48:39.345Z,1.90
2018-05-06T18:51:11.865Z,1.95
2018-05-06T18:53:44.366Z,1.73
2018-05-06T18:56:17.733Z,1.67
2018-05-06T18:58:50.229Z,1.95
2018-05-06T19:01:22.745Z,2.00
2018-05-06T19:03:55.248Z,2.00
2018-05-06T19:06:27.768Z,2.03
2018-05-06T19:09:00.267Z,1.85
2018-05-06T19:11:32.781Z,2.00
2018-05-06T19:14:05.290Z,2.40
2018-05-06T19:16:37.799Z,1.90
2018-05-06T19:19:10.296Z,1.85
2018-05-06T19:21:42.817Z,2.10
2018-05-06T19:24:15.623Z,2.08
2018-05-06T19:26:48.191Z,1.80
2018-05-06T19:29:20.762Z,2.00
2018-05-06T19:31:53.314Z,2.12
2018-05-06T19:34:25.864Z,2.42
2018-05-06T19:36:58.415Z,2.12
2018-05-06T19:39:30.967Z,2.00
2018-05-06T19:42:06.166Z,2.30
2018-05-06T19:44:36.730Z,2.60
2018-05-06T19:47:09.404Z,3.05
2018-05-06T19:49:41.983Z,3.00
2018-05-06T19:52:14.520Z,2.90
2018-05-06T19:54:47.667Z,3.08
2018-05-06T19:57:20.252Z,2.60
2018-05-06T19:59:52.800Z,2.83
2018-05-06T20:02:25.374Z,2.55
2018-05-06T20:04:57.936Z,2.90
2018-05-06T20:07:30.846Z,2.50
2018-05-06T20:10:03.346Z,2.60
2018-05-06T20:12:35.863Z,2.30
2018-05-06T20:15:08.472Z,2.40
2018-05-06T20:17:41.004Z,2.25
2018-05-06T20:20:13.495Z,2.50
2018-05-06T20:22:46.529Z,2.47
2018-05-06T20:25:19.156Z,2.62
2018-05-06T20:27:52.114Z,2.45
2018-05-06T20:30:24.647Z,2.70
2018-05-06T20:32:57.165Z,2.90
2018-05-06T20:35:29.730Z,2.87
2018-05-06T20:38:02.247Z,2.60
2018-05-06T20:40:34.747Z,2.45
2018-05-06T20:43:07.566Z,2.37
2018-05-06T20:45:40.078Z,2.33
2018-05-06T20:48:12.592Z,2.53
2018-05-06T20:50:45.094Z,2.55
2018-05-06T20:53:18.719Z,2.87
2018-05-06T20:55:51.207Z,2.45
2018-05-06T20:58:23.729Z,2.42
2018-05-06T21:00:56.229Z,2.47
2018-05-06T21:03:28.744Z,2.53
2018-05-06T21:06:01.240Z,2.40
2018-05-06T21:08:33.754Z,2.55
2018-05-06T21:11:06.256Z,2.65
2018-05-06T21:13:38.868Z,2.58
2018-05-06T21:16:11.383Z,2.40
2018-05-06T21:18:43.864Z,2.78
2018-05-06T21:21:16.701Z,2.78
2018-05-06T21:23:49.240Z,2.67
2018-05-06T21:26:21.743Z,2.55
2018-05-06T21:28:54.257Z,2.90
2018-05-06T21:31:26.777Z,3.10
2018-05-06T21:33:59.299Z,3.00
2018-05-06T21:36:31.832Z,2.72
2018-05-06T21:39:04.395Z,2.75
2018-05-06T21:41:36.884Z,3.35
2018-05-06T21:44:09.394Z,2.92
2018-05-06T21:46:41.915Z,3.30
2018-05-06T21:49:14.409Z,3.10
2018-05-06T21:51:47.118Z,2.70
2018-05-06T21:54:19.624Z,3.15
2018-05-06T21:56:52.146Z,3.03
2018-05-06T21:59:24.662Z,2.78
2018-05-06T22:01:57.185Z,2.60
2018-05-06T22:04:29.679Z,2.90
2018-05-06T22:07:02.201Z,2.83
2018-05-06T22:09:34.699Z,3.42
2018-05-06T22:12:07.215Z,3.00
2018-05-06T22:14:39.725Z,3.10
2018-05-06T22:17:12.245Z,3.05
2018-05-06T22:19:44.741Z,3.05
2018-05-06T22:22:18.333Z,2.87
2018-05-06T22:24:50.833Z,3.25
2018-05-06T22:27:23.355Z,3.12
2018-05-06T22:29:55.860Z,2.90
2018-05-06T22:32:28.377Z,3.00
2018-05-06T22:35:00.945Z,3.28
2018-05-06T22:37:33.512Z,3.05
2018-05-06T22:40:06.059Z,3.25
2018-05-06T22:42:38.580Z,3.05
2018-05-06T22:45:11.076Z,2.70
2018-05-06T22:47:43.592Z,2.67
2018-05-06T22:50:16.489Z,3.05
2018-05-06T22:52:49.006Z,3.40
2018-05-06T22:55:21.508Z,3.30
2018-05-06T22:57:54.024Z,3.17
2018-05-06T23:00:26.528Z,2.93
2018-05-06T23:02:59.057Z,3.57
2018-05-06T23:05:31.573Z,3.10
2018-05-06T23:08:04.100Z,3.20
2018-05-06T23:10:36.597Z,2.70
2018-05-06T23:13:09.128Z,3.00
2018-05-06T23:15:41.625Z,3.50
2018-05-06T23:18:14.156Z,3.17
2018-05-06T23:20:46.668Z,2.83
2018-05-06T23:23:19.190Z,2.97
2018-05-06T23:25:51.687Z,3.00
2018-05-06T23:28:24.228Z,2.83
2018-05-06T23:30:56.732Z,2.97
2018-05-06T23:33:29.268Z,2.80
2018-05-06T23:36:01.775Z,2.77
2018-05-06T23:38:34.304Z,3.33
2018-05-06T23:41:06.807Z,3.40
2018-05-06T23:43:39.382Z,3.57
2018-05-06T23:46:11.858Z,2.83
2018-05-06T23:48:44.375Z,2.97
2018-05-06T23:51:17.793Z,2.87
2018-05-06T23:53:50.317Z,2.93
2018-05-06T23:56:22.866Z,2.97
2018-05-06T23:58:55.396Z,2.50
